Time;durP1;ratioP1;P1;durP2;ratioP2;P2;SDS_P1;SDS_P2;PMS_P1;PMS_P2;Temp;Humidity;BMP_temperature;BMP_pressure;BME280_temperature;BME280_humidity;BME280_pressure;Samples;Min_cycle;Max_cycle;Signal;HPM_P1;HPM_P2
2023/05/03 00:02:39;;;;;;;0.57;0.57;;;;;;;11.33;49.63;102198.72;5182273;28;20087;-80
2023/05/03 00:05:30;;;;;;;0.45;0.45;;;;;;;11.25;49.60;102202.25;5193090;28;20033;-80
2023/05/03 00:08:33;;;;;;;0.30;0.30;;;;;;;11.28;49.86;102192.59;5197252;28;20055;-81
2023/05/03 00:11:24;;;;;;;0.60;0.60;;;;;;;11.22;49.49;102200.53;5189780;28;20135;-80
2023/05/03 00:14:14;;;;;;;0.30;0.30;;;;;;;11.19;49.91;102197.94;5193817;28;20411;-80
2023/05/03 00:17:05;;;;;;;0.60;0.60;;;;;;;11.22;49.68;102192.66;5177201;28;20803;-80
2023/05/03 00:19:56;;;;;;;2.63;1.63;;;;;;;11.21;49.69;102196.16;5182556;28;20060;-81
2023/05/03 00:22:47;;;;;;;0.32;0.32;;;;;;;11.20;50.29;102189.16;5195974;28;20124;-80
2023/05/03 00:25:37;;;;;;;0.30;0.30;;;;;;;11.22;50.58;102197.03;5182063;28;20037;-81
2023/05/03 00:28:28;;;;;;;16.55;3.05;;;;;;;11.16;50.04;102197.94;5180006;28;20050;-80
2023/05/03 00:31:19;;;;;;;0.50;0.50;;;;;;;11.14;50.69;102199.69;5176389;28;20099;-80
2023/05/03 00:34:10;;;;;;;0.57;0.57;;;;;;;11.14;51.36;102199.69;5212891;28;20038;-81
2023/05/03 00:37:00;;;;;;;0.30;0.30;;;;;;;11.12;51.13;102201.47;5191762;28;20045;-80
2023/05/03 00:39:52;;;;;;;1.35;1.25;;;;;;;11.02;50.24;102198.91;5178618;28;20026;-80
2023/05/03 00:42:43;;;;;;;0.75;0.55;;;;;;;11.07;51.30;102187.50;5195740;28;20041;-80
2023/05/03 00:45:34;;;;;;;0.30;0.30;;;;;;;10.99;50.68;102188.41;5189826;28;20037;-79
2023/05/03 00:48:26;;;;;;;0.40;0.40;;;;;;;11.00;51.21;102184.00;5175658;28;20893;-79
2023/05/03 00:51:18;;;;;;;2.85;1.02;;;;;;;10.95;50.43;102189.28;5190362;28;20029;-79
2023/05/03 00:54:10;;;;;;;2.67;0.88;;;;;;;10.89;51.25;102183.22;5176782;28;20033;-79
2023/05/03 00:57:03;;;;;;;0.30;0.30;;;;;;;10.90;51.47;102192.84;5192364;28;20045;-79
2023/05/03 00:59:57;;;;;;;0.43;0.43;;;;;;;10.86;51.94;102187.59;5190377;28;20037;-79
2023/05/03 01:02:48;;;;;;;0.70;0.55;;;;;;;10.80;51.38;102189.38;5178979;28;20042;-79
2023/05/03 01:06:11;;;;;;;0.32;0.32;;;;;;;10.73;51.05;102185.91;5197836;28;20029;-79
2023/05/03 01:09:11;;;;;;;0.43;0.43;;;;;;;10.54;50.97;102182.47;5172002;28;20034;-79
2023/05/03 01:12:11;;;;;;;1.90;0.80;;;;;;;10.51;51.68;102183.34;5189593;28;20041;-79
2023/05/03 01:15:02;;;;;;;0.90;0.90;;;;;;;10.55;51.55;102189.47;5190046;28;20058;-79
2023/05/03 01:18:02;;;;;;;0.57;0.52;;;;;;;10.52;51.61;102184.25;5187511;28;20041;-79
2023/05/03 01:20:54;;;;;;;0.68;0.68;;;;;;;10.45;51.49;102180.75;5196889;28;20026;-79
2023/05/03 01:23:59;;;;;;;1.30;1.20;;;;;;;10.40;51.38;102182.53;5188161;28;20128;-79
2023/05/03 01:26:50;;;;;;;0.30;0.30;;;;;;;10.33;51.09;102176.38;5186070;28;20736;-79
2023/05/03 01:29:42;;;;;;;0.60;0.60;;;;;;;10.32;51.98;102177.25;5176934;28;20038;-79
2023/05/03 01:32:42;;;;;;;0.30;0.30;;;;;;;10.35;51.94;102185.13;5189124;28;20053;-79
2023/05/03 01:35:42;;;;;;;15.73;2.42;;;;;;;10.35;52.28;102177.28;5183077;28;20041;-80
2023/05/03 01:38:36;;;;;;;0.40;0.40;;;;;;;10.30;52.23;102181.63;5188490;28;20122;-80
2023/05/03 01:41:27;;;;;;;0.40;0.40;;;;;;;10.26;51.88;102187.78;5193783;28;20021;-80
2023/05/03 01:44:20;;;;;;;0.68;0.68;;;;;;;10.19;52.05;102191.31;5192408;28;20151;-79
2023/05/03 01:47:13;;;;;;;0.40;0.40;;;;;;;10.18;52.59;102197.41;5176450;28;20034;-79
2023/05/03 01:50:04;;;;;;;0.57;0.55;;;;;;;10.13;51.81;102199.16;5179872;28;20041;-79
2023/05/03 01:52:55;;;;;;;0.93;0.85;;;;;;;10.12;52.02;102197.44;5193575;28;20030;-79
2023/05/03 01:55:46;;;;;;;1.40;1.10;;;;;;;10.03;52.19;102201.81;5179009;28;20029;-79
2023/05/03 01:58:37;;;;;;;1.40;1.30;;;;;;;10.00;52.29;102198.31;5194714;28;20672;-79
2023/05/03 02:01:27;;;;;;;0.30;0.30;;;;;;;9.93;52.46;102200.94;5176612;28;20677;-79
2023/05/03 02:04:18;;;;;;;0.50;0.50;;;;;;;9.87;51.50;102200.94;5194779;28;20036;-79
2023/05/03 02:07:09;;;;;;;0.50;0.50;;;;;;;9.86;52.65;102199.19;5197209;28;20052;-79
2023/05/03 02:10:00;;;;;;;0.93;0.90;;;;;;;9.83;52.30;102198.31;5178539;28;20202;-79
2023/05/03 02:12:50;;;;;;;0.50;0.50;;;;;;;9.79;51.78;102213.16;5179672;28;20033;-79
2023/05/03 02:15:41;;;;;;;0.65;0.65;;;;;;;9.59;51.69;102205.31;5191671;28;20100;-79
2023/05/03 02:18:32;;;;;;;0.77;0.77;;;;;;;9.54;52.12;102218.41;5191659;28;21081;-79
2023/05/03 02:21:23;;;;;;;2.03;1.92;;;;;;;9.43;51.98;102231.50;5196350;28;20036;-79
2023/05/03 02:24:14;;;;;;;0.98;0.88;;;;;;;9.29;52.96;102233.22;5183042;28;20037;-79
2023/05/03 02:27:04;;;;;;;0.95;0.95;;;;;;;9.00;54.27;102233.13;5177072;28;20037;-79
2023/05/03 02:29:55;;;;;;;0.93;0.93;;;;;;;9.04;53.09;102233.13;5178354;28;20613;-79
2023/05/03 02:32:46;;;;;;;0.40;0.40;;;;;;;9.10;52.49;102230.53;5184055;28;20076;-79
2023/05/03 02:35:37;;;;;;;0.68;0.68;;;;;;;9.18;52.75;102225.28;5196637;28;20030;-79
2023/05/03 02:38:27;;;;;;;0.63;0.63;;;;;;;9.17;52.42;102231.44;5177480;28;20112;-79
2023/05/03 02:41:18;;;;;;;0.40;0.40;;;;;;;9.21;52.48;102225.31;5190675;28;20026;-79
2023/05/03 02:44:10;;;;;;;1.10;1.00;;;;;;;9.22;52.99;102228.81;5194783;28;20046;-80
2023/05/03 02:47:01;;;;;;;1.38;1.05;;;;;;;9.19;52.44;102232.28;5194626;28;20132;-80
2023/05/03 02:49:52;;;;;;;0.40;0.40;;;;;;;9.18;53.19;102237.53;5196219;28;20037;-80
2023/05/03 02:52:43;;;;;;;0.60;0.60;;;;;;;9.12;52.77;102228.81;5188904;28;20037;-80
2023/05/03 02:55:33;;;;;;;0.30;0.30;;;;;;;9.06;52.74;102220.91;5198267;28;20694;-80
2023/05/03 02:58:24;;;;;;;0.57;0.57;;;;;;;9.07;53.06;102227.88;5194765;28;20049;-80
2023/05/03 03:01:15;;;;;;;0.30;0.30;;;;;;;9.09;53.12;102218.31;5191850;28;20026;-80
2023/05/03 03:04:06;;;;;;;0.35;0.35;;;;;;;9.08;52.97;102218.31;5181881;28;20048;-80
2023/05/03 03:06:57;;;;;;;0.95;0.95;;;;;;;9.09;53.33;102214.81;5196085;28;20048;-80
2023/05/03 03:09:48;;;;;;;0.60;0.60;;;;;;;9.02;53.07;102213.91;5181756;28;20568;-80
2023/05/03 03:12:39;;;;;;;0.60;0.60;;;;;;;9.02;53.42;102207.78;5182368;28;20034;-80
2023/05/03 03:15:29;;;;;;;1.02;1.02;;;;;;;8.95;53.05;102199.94;5183429;28;20038;-80
2023/05/03 03:18:20;;;;;;;0.95;0.95;;;;;;;8.96;53.05;102198.19;5194771;28;20041;-80
2023/05/03 03:21:11;;;;;;;0.73;0.73;;;;;;;8.94;53.04;102194.69;5196973;28;20029;-80
2023/05/03 03:24:03;;;;;;;0.43;0.43;;;;;;;8.96;53.70;102187.72;5183457;28;20038;-79
2023/05/03 03:26:53;;;;;;;1.02;1.02;;;;;;;8.90;53.48;102179.84;5181254;28;21074;-80
2023/05/03 03:29:44;;;;;;;0.50;0.50;;;;;;;8.87;54.07;102177.22;5194674;28;20137;-79
2023/05/03 03:32:35;;;;;;;1.55;1.15;;;;;;;8.90;54.15;102178.09;5198769;28;20439;-80
2023/05/03 03:35:26;;;;;;;0.77;0.77;;;;;;;8.89;54.00;102170.22;5197047;28;20022;-80
2023/05/03 03:38:17;;;;;;;0.30;0.30;;;;;;;8.83;53.80;102171.09;5194082;28;20037;-79
2023/05/03 03:41:07;;;;;;;1.00;1.00;;;;;;;8.81;53.79;102171.06;5195379;28;20059;-80
2023/05/03 03:43:58;;;;;;;0.60;0.60;;;;;;;8.82;54.35;102171.97;5181559;28;20033;-80
2023/05/03 03:46:49;;;;;;;5.10;1.52;;;;;;;8.81;54.80;102168.47;5183903;28;20061;-80
2023/05/03 03:49:40;;;;;;;1.63;1.02;;;;;;;8.81;54.82;102171.06;5188677;28;20029;-80
2023/05/03 03:52:30;;;;;;;0.82;0.82;;;;;;;8.79;54.36;102169.34;5203795;28;20187;-80
2023/05/03 03:55:21;;;;;;;0.40;0.40;;;;;;;8.74;54.34;102166.69;5196158;28;20057;-80
2023/05/03 03:58:12;;;;;;;0.73;0.73;;;;;;;8.71;54.35;102166.69;5193292;28;20053;-80
2023/05/03 04:01:03;;;;;;;0.88;0.88;;;;;;;8.66;54.26;102157.94;5193642;28;20959;-80
2023/05/03 04:03:54;;;;;;;1.75;1.05;;;;;;;8.67;54.45;102149.22;5198247;28;20623;-79
2023/05/03 04:06:45;;;;;;;0.50;0.50;;;;;;;8.61;54.52;102152.69;5202635;28;20052;-80
2023/05/03 04:09:35;;;;;;;0.80;0.80;;;;;;;8.60;55.03;102145.69;5207491;28;20048;-80
2023/05/03 04:12:26;;;;;;;0.30;0.30;;;;;;;8.56;54.86;102153.53;5197241;28;20021;-81
2023/05/03 04:15:17;;;;;;;0.30;0.30;;;;;;;8.57;55.07;102152.66;5200890;28;20037;-77
2023/05/03 04:18:08;;;;;;;1.05;0.88;;;;;;;8.52;54.36;102167.47;5216912;28;20034;-77
2023/05/03 04:20:58;;;;;;;0.40;0.40;;;;;;;8.45;54.18;102167.44;5204598;28;20029;-78
2023/05/03 04:23:49;;;;;;;0.40;0.40;;;;;;;8.31;54.51;102174.28;5214716;28;20036;-77
2023/05/03 04:26:40;;;;;;;0.32;0.32;;;;;;;8.38;55.06;102173.50;5199864;28;20057;-80
2023/05/03 04:29:31;;;;;;;0.40;0.40;;;;;;;8.33;54.15;102185.66;5196878;28;20083;-81
2023/05/03 04:32:23;;;;;;;0.35;0.35;;;;;;;8.37;55.48;102187.44;5203441;28;20069;-81
2023/05/03 04:35:14;;;;;;;0.95;0.95;;;;;;;8.36;55.13;102185.69;5210239;28;20085;-81
2023/05/03 04:38:04;;;;;;;1.90;1.55;;;;;;;8.28;54.97;102203.06;5206700;28;20042;-81
2023/05/03 04:40:57;;;;;;;0.73;0.68;;;;;;;8.30;55.50;102196.13;5201927;28;20108;-81
2023/05/03 04:43:48;;;;;;;0.30;0.30;;;;;;;8.29;54.98;102202.22;5179441;28;20041;-80
2023/05/03 04:46:38;;;;;;;1.65;0.95;;;;;;;8.24;54.51;102188.22;5194786;28;20049;-80
2023/05/03 04:49:29;;;;;;;0.88;0.88;;;;;;;8.23;54.79;102204.75;5177741;28;20034;-80
2023/05/03 04:52:20;;;;;;;0.30;0.30;;;;;;;8.18;55.02;102202.16;5194185;28;20096;-79
2023/05/03 04:55:11;;;;;;;1.50;1.40;;;;;;;8.24;55.67;102203.91;5182678;28;20037;-80
2023/05/03 04:58:02;;;;;;;1.15;1.15;;;;;;;8.25;55.51;102205.66;5201210;28;20030;-80
2023/05/03 05:00:53;;;;;;;0.95;0.95;;;;;;;8.22;55.55;102203.91;5180057;28;20080;-80
2023/05/03 05:03:44;;;;;;;0.68;0.68;;;;;;;8.05;55.86;102206.41;5197984;28;20038;-79
2023/05/03 05:06:35;;;;;;;0.75;0.65;;;;;;;8.06;55.74;102208.13;5194228;28;20037;-79
2023/05/03 05:09:27;;;;;;;0.45;0.45;;;;;;;8.10;55.59;102214.28;5200518;28;20108;-79
2023/05/03 05:12:18;;;;;;;0.88;0.85;;;;;;;8.11;54.98;102211.69;5180452;28;20033;-79
2023/05/03 05:15:09;;;;;;;1.55;1.23;;;;;;;8.11;54.90;102209.06;5183009;28;20087;-81
2023/05/03 05:18:00;;;;;;;0.82;0.82;;;;;;;8.01;55.79;102220.31;5194486;28;20041;-80
2023/05/03 05:20:51;;;;;;;0.68;0.68;;;;;;;7.91;57.00;102242.00;5181223;28;20037;-80
2023/05/03 05:23:42;;;;;;;1.50;1.40;;;;;;;7.95;56.12;102241.16;5192437;28;20372;-80
2023/05/03 05:26:33;;;;;;;2.05;1.65;;;;;;;7.78;57.14;102236.69;5182471;28;20030;-79
2023/05/03 05:29:24;;;;;;;7.65;1.80;;;;;;;7.90;56.20;102237.63;5193616;28;20113;-80
2023/05/03 05:32:14;;;;;;;0.75;0.75;;;;;;;7.95;55.87;102235.94;5198966;28;20033;-80
2023/05/03 05:35:05;;;;;;;0.30;0.30;;;;;;;7.99;56.61;102237.72;5202419;28;20041;-80
2023/05/03 05:37:56;;;;;;;0.75;0.75;;;;;;;7.98;55.78;102235.94;5185642;28;20040;-79
2023/05/03 05:40:47;;;;;;;3.33;2.15;;;;;;;8.01;56.31;102228.16;5197968;28;20623;-80
2023/05/03 05:43:37;;;;;;;1.05;1.05;;;;;;;7.98;56.74;102233.34;5176948;28;20144;-80
2023/05/03 05:46:28;;;;;;;0.68;0.68;;;;;;;7.74;58.41;102234.88;5192168;28;20026;-81
2023/05/03 05:49:19;;;;;;;0.50;0.50;;;;;;;7.29;61.55;102239.66;5189541;28;20029;-81
2023/05/03 05:52:10;;;;;;;1.10;1.10;;;;;;;7.61;59.39;102248.69;5182095;28;20112;-81
2023/05/03 05:55:01;;;;;;;0.55;0.55;;;;;;;7.65;59.90;102243.53;5197421;28;20101;-78
2023/05/03 05:57:52;;;;;;;0.60;0.60;;;;;;;7.74;58.48;102244.47;5186032;28;20042;-79
2023/05/03 06:00:42;;;;;;;0.57;0.57;;;;;;;7.61;60.36;102248.69;5197349;28;20547;-79
2023/05/03 06:03:33;;;;;;;1.27;1.27;;;;;;;7.52;61.34;102252.97;5179696;28;20042;-80
2023/05/03 06:06:27;;;;;;;1.90;1.05;;;;;;;7.49;61.42;102255.53;5199234;28;20026;-80
2023/05/03 06:09:18;;;;;;;0.68;0.68;;;;;;;7.74;58.93;102258.41;5188375;28;20542;-79
2023/05/03 06:12:09;;;;;;;0.50;0.50;;;;;;;7.85;58.29;102261.13;5184957;28;20041;-79
2023/05/03 06:15:00;;;;;;;9.88;1.60;;;;;;;7.78;60.66;102269.75;5183866;28;20790;-79
2023/05/03 06:17:51;;;;;;;0.40;0.40;;;;;;;7.55;60.41;102270.41;5186002;28;20037;-79
2023/05/03 06:20:42;;;;;;;0.52;0.52;;;;;;;7.51;59.92;102269.50;5180876;28;20627;-79
2023/05/03 06:23:34;;;;;;;0.40;0.40;;;;;;;7.72;58.92;102260.16;5192953;28;21991;-79
2023/05/03 06:26:24;;;;;;;0.30;0.30;;;;;;;7.76;58.32;102261.91;5195318;28;20029;-79
2023/05/03 06:29:15;;;;;;;0.40;0.40;;;;;;;7.84;58.09;102265.47;5183250;28;20044;-78
2023/05/03 06:32:06;;;;;;;5.70;1.45;;;;;;;7.64;59.48;102269.66;5196599;28;20048;-79
2023/05/03 06:35:00;;;;;;;0.30;0.30;;;;;;;7.54;59.53;102272.16;5198049;28;20038;-79
2023/05/03 06:37:51;;;;;;;0.52;0.52;;;;;;;7.48;60.61;102260.75;5184146;28;20057;-79
2023/05/03 06:40:44;;;;;;;1.20;1.10;;;;;;;7.82;58.31;102266.31;5185895;28;20025;-80
2023/05/03 06:43:35;;;;;;;1.80;1.70;;;;;;;7.78;60.60;102269.75;5197638;28;20045;-80
2023/05/03 06:46:26;;;;;;;0.68;0.68;;;;;;;8.02;58.96;102266.50;5205317;28;20044;-78
2023/05/03 06:49:17;;;;;;;1.05;1.05;;;;;;;8.00;60.21;102261.25;5200459;28;20030;-80
2023/05/03 06:52:08;;;;;;;1.40;0.93;;;;;;;8.11;59.35;102258.72;5202301;28;20273;-79
2023/05/03 06:54:59;;;;;;;0.60;0.60;;;;;;;8.21;58.67;102259.66;5196833;28;20046;-78
2023/05/03 06:57:51;;;;;;;0.35;0.35;;;;;;;8.12;60.02;102260.50;5187007;28;20554;-78
2023/05/03 07:00:42;;;;;;;1.35;1.35;;;;;;;8.01;60.64;102256.91;5190152;28;20037;-78
2023/05/03 07:03:32;;;;;;;0.50;0.50;;;;;;;8.14;59.74;102253.50;5196375;28;20026;-79
2023/05/03 07:06:23;;;;;;;1.40;1.30;;;;;;;8.12;60.13;102257.88;5184360;28;20096;-79
2023/05/03 07:09:14;;;;;;;0.50;0.50;;;;;;;8.11;61.62;102261.34;5199432;28;20029;-78
2023/05/03 07:12:05;;;;;;;1.25;1.15;;;;;;;8.38;58.85;102259.81;5197202;28;20037;-79
2023/05/03 07:14:56;;;;;;;2.15;1.95;;;;;;;8.45;59.87;102258.09;5184421;28;20030;-80
2023/05/03 07:17:47;;;;;;;0.73;0.73;;;;;;;8.44;60.54;102257.22;5200288;28;20063;-79
2023/05/03 07:20:38;;;;;;;1.10;0.93;;;;;;;8.46;60.27;102260.72;5194627;28;20640;-79
2023/05/03 07:23:29;;;;;;;0.30;0.30;;;;;;;8.45;59.89;102260.69;5195865;28;20026;-79
2023/05/03 07:26:20;;;;;;;0.57;0.57;;;;;;;8.57;59.51;102257.31;5191810;28;20029;-79
2023/05/03 07:29:11;;;;;;;0.60;0.60;;;;;;;8.54;59.06;102255.56;5185008;28;20121;-79
2023/05/03 07:31:43;;;;;;;1.67;1.58;;;;;;;8.62;60.31;102255.63;5187279;28;20061;-79
2023/05/03 07:34:14;;;;;;;3.10;2.08;;;;;;;8.62;60.76;102246.03;5203540;28;20033;-78
2023/05/03 07:36:44;;;;;;;1.67;1.58;;;;;;;8.75;60.13;102239.09;5199929;28;20051;-78
2023/05/03 07:39:14;;;;;;;0.60;0.60;;;;;;;8.69;59.22;102241.69;5190108;28;20045;-79
2023/05/03 07:41:45;;;;;;;1.65;0.70;;;;;;;8.74;58.50;102239.09;5187752;28;20056;-79
2023/05/03 07:44:16;;;;;;;0.30;0.30;;;;;;;8.87;58.96;102234.81;5189963;28;20030;-79
2023/05/03 07:46:46;;;;;;;4.93;1.60;;;;;;;8.97;58.32;102237.47;5184618;28;20106;-79
2023/05/03 07:49:17;;;;;;;1.10;0.90;;;;;;;8.97;59.03;102228.72;5197239;28;20069;-79
2023/05/03 07:51:47;;;;;;;0.40;0.40;;;;;;;9.00;58.66;102230.50;5201413;28;20136;-79
2023/05/03 07:54:18;;;;;;;0.50;0.50;;;;;;;9.03;58.37;102226.16;5198826;28;20307;-79
2023/05/03 07:56:48;;;;;;;0.40;0.40;;;;;;;9.11;58.65;102228.78;5199420;28;20133;-80
2023/05/03 07:59:22;;;;;;;0.50;0.50;;;;;;;8.99;59.57;102232.22;5192932;28;20518;-80
2023/05/03 08:01:52;;;;;;;;;;;;;;;9.08;58.71;102229.63;5191382;28;20048;-79
2023/05/03 08:04:23;;;;;;;1.48;1.38;;;;;;;9.21;58.86;102229.69;5181549;28;19917;-80
2023/05/03 08:06:53;;;;;;;1.30;1.23;;;;;;;9.26;58.91;102222.72;5195800;28;20048;-79
2023/05/03 08:09:24;;;;;;;0.45;0.45;;;;;;;9.26;58.97;102214.84;5185616;28;20049;-80
2023/05/03 08:11:55;;;;;;;0.73;0.73;;;;;;;9.38;58.44;102203.53;5180635;28;20060;-81
2023/05/03 08:14:26;;;;;;;0.47;0.47;;;;;;;9.46;57.61;102214.91;5186172;28;20399;-79
2023/05/03 08:16:57;;;;;;;1.10;1.08;;;;;;;9.42;57.04;102214.00;5200932;28;20045;-80
2023/05/03 08:19:27;;;;;;;0.55;0.55;;;;;;;9.43;57.34;102225.34;5168948;28;20121;-80
2023/05/03 08:21:58;;;;;;;0.52;0.52;;;;;;;9.53;56.82;102221.03;5197211;28;20466;-78
2023/05/03 08:24:28;;;;;;;0.50;0.50;;;;;;;9.54;56.82;102222.78;5197972;28;20100;-80
2023/05/03 08:26:59;;;;;;;1.50;1.20;;;;;;;9.58;56.27;102216.66;5183511;28;20044;-81
2023/05/03 08:29:29;;;;;;;1.98;1.17;;;;;;;9.68;56.62;102214.91;5198272;28;20037;-80
2023/05/03 08:32:01;;;;;;;0.65;0.65;;;;;;;9.75;56.50;102216.69;5184163;28;20048;-80
2023/05/03 08:34:35;;;;;;;1.13;1.10;;;;;;;9.83;56.66;102208.81;5179207;28;20037;-81
2023/05/03 08:37:06;;;;;;;0.60;0.60;;;;;;;9.89;56.46;102214.03;5201403;28;20033;-81
2023/05/03 08:40:17;;;;;;;1.02;1.00;;;;;;;9.95;53.97;102206.19;5197547;28;20095;-81
2023/05/03 08:42:49;;;;;;;0.73;0.73;;;;;;;10.12;52.98;102210.53;5197763;28;20937;-81
2023/05/03 08:45:20;;;;;;;2.42;1.80;;;;;;;9.99;54.17;102207.06;5182178;28;20033;-80
2023/05/03 08:47:54;;;;;;;0.35;0.35;;;;;;;10.16;53.64;102212.28;5184329;28;20061;-81
2023/05/03 08:50:24;;;;;;;0.40;0.40;;;;;;;10.13;54.24;102205.28;5183121;28;20041;-80
2023/05/03 08:53:45;;;;;;;0.57;0.57;;;;;;;10.24;52.88;102200.91;5185880;28;20037;-81
2023/05/03 08:56:29;;;;;;;1.30;1.20;;;;;;;10.22;53.19;102202.66;5184924;28;20053;-80
2023/05/03 08:59:06;;;;;;;0.40;0.40;;;;;;;10.27;54.60;102205.28;5181195;28;20038;-81
2023/05/03 09:01:40;;;;;;;0.63;0.55;;;;;;;10.32;54.18;102198.25;5181454;28;20679;-79
2023/05/03 09:04:11;;;;;;;0.63;0.63;;;;;;;10.43;52.58;102194.78;5196688;28;20048;-79
2023/05/03 09:06:41;;;;;;;0.35;0.35;;;;;;;10.49;51.77;102192.13;5183671;28;20041;-79
2023/05/03 09:09:13;;;;;;;0.60;0.60;;;;;;;10.61;52.39;102193.81;5194802;28;20029;-80
2023/05/03 09:11:43;;;;;;;0.47;0.47;;;;;;;10.53;51.28;102192.09;5183417;28;20048;-79
2023/05/03 09:14:17;;;;;;;0.40;0.40;;;;;;;10.64;52.71;102189.44;5185033;28;20037;-80
2023/05/03 09:16:47;;;;;;;0.40;0.40;;;;;;;10.71;52.47;102182.41;5195337;28;20045;-79
2023/05/03 09:19:18;;;;;;;4.32;0.88;;;;;;;10.78;52.17;102173.63;5164396;28;20048;-79
2023/05/03 09:21:49;;;;;;;0.25;0.25;;;;;;;10.76;52.19;102179.78;5195905;28;20487;-79
2023/05/03 09:24:20;;;;;;;0.40;0.40;;;;;;;10.84;51.56;102170.97;5181458;28;20040;-80
2023/05/03 09:26:52;;;;;;;0.20;0.20;;;;;;;10.98;51.69;102172.66;5179277;28;20026;-79
2023/05/03 09:29:27;;;;;;;8.02;1.27;;;;;;;10.88;50.98;102170.97;5184251;28;20025;-79
2023/05/03 09:31:59;;;;;;;0.40;0.40;;;;;;;10.98;51.48;102170.03;5160658;28;20604;-78
2023/05/03 09:34:31;;;;;;;0.50;0.50;;;;;;;10.96;51.31;102170.03;5194048;28;20037;-79
2023/05/03 09:37:01;;;;;;;0.30;0.30;;;;;;;11.04;51.85;102172.63;5194726;28;20455;-80
2023/05/03 09:39:32;;;;;;;1.48;1.40;;;;;;;11.12;51.11;102170.81;5194428;28;20049;-80
2023/05/03 09:42:14;;;;;;;0.68;0.65;;;;;;;11.21;51.08;102169.88;5177067;28;20064;-79
2023/05/03 09:44:52;;;;;;;0.35;0.35;;;;;;;11.34;50.29;102168.03;5179832;28;20037;-78
2023/05/03 09:47:24;;;;;;;0.93;0.93;;;;;;;11.34;50.36;102161.06;5193506;28;20037;-80
2023/05/03 09:49:55;;;;;;;1.23;1.23;;;;;;;11.43;49.68;102156.63;5177539;28;20045;-81
2023/05/03 09:52:28;;;;;;;1.27;0.82;;;;;;;11.57;49.66;102157.38;5180420;28;20045;-79
2023/05/03 09:54:58;;;;;;;0.50;0.50;;;;;;;11.55;50.19;102153.88;5191050;28;20065;-79
2023/05/03 09:57:29;;;;;;;1.85;0.98;;;;;;;11.62;49.08;102150.31;5175858;28;20038;-80
2023/05/03 10:00:00;;;;;;;0.30;0.30;;;;;;;11.67;49.74;102144.16;5173592;28;20037;-80
2023/05/03 10:02:31;;;;;;;0.90;0.77;;;;;;;11.75;50.01;102150.22;5185280;28;20038;-81
2023/05/03 10:05:03;;;;;;;0.40;0.40;;;;;;;11.75;49.68;102131.81;5179270;28;20042;-79
2023/05/03 10:07:33;;;;;;;0.82;0.82;;;;;;;11.76;49.35;102130.91;5200230;28;20058;-81
2023/05/03 10:10:06;;;;;;;0.35;0.35;;;;;;;11.84;49.15;102138.72;5200002;28;20038;-79
2023/05/03 10:12:36;;;;;;;1.38;0.93;;;;;;;11.73;48.37;102139.72;5199304;28;20065;-80
2023/05/03 10:15:11;;;;;;;1.13;1.05;;;;;;;11.88;48.40;102143.06;5182445;28;20057;-78
2023/05/03 10:17:42;;;;;;;4.10;1.30;;;;;;;11.96;49.24;102139.47;5216324;28;20062;-79
2023/05/03 10:20:38;;;;;;;0.30;0.30;;;;;;;12.00;49.44;102131.59;5198960;28;20126;-80
2023/05/03 10:23:27;;;;;;;0.55;0.55;;;;;;;12.12;50.55;102128.81;5199726;28;20042;-79
2023/05/03 10:26:19;;;;;;;0.38;0.38;;;;;;;12.26;49.03;102126.94;5199077;28;20049;-79
2023/05/03 10:29:36;;;;;;;0.50;0.50;;;;;;;12.24;48.79;102120.78;5199784;28;20061;-79
2023/05/03 10:32:34;;;;;;;0.40;0.40;;;;;;;12.45;47.44;102124.03;5190666;28;20045;-78
2023/05/03 10:35:27;;;;;;;0.40;0.40;;;;;;;12.50;47.21;102124.00;5207179;28;20060;-78
2023/05/03 10:38:22;;;;;;;2.22;1.98;;;;;;;12.55;46.78;102125.69;5199118;28;20042;-80
2023/05/03 10:42:07;;;;;;;1.73;1.60;;;;;;;12.60;47.50;102123.84;5199524;28;20053;-80
2023/05/03 10:45:02;;;;;;;0.85;0.85;;;;;;;12.60;46.77;102126.47;5187900;28;20585;-80
2023/05/03 10:48:11;;;;;;;0.80;0.80;;;;;;;12.72;47.29;102124.59;5197760;28;20048;-81
2023/05/03 10:51:32;;;;;;;3.72;1.52;;;;;;;12.87;47.56;102124.38;5193808;28;20109;-80
2023/05/03 10:54:23;;;;;;;7.80;3.00;;;;;;;12.89;45.79;102122.59;5179450;28;20029;-80
2023/05/03 10:57:14;;;;;;;0.43;0.43;;;;;;;12.94;45.13;102121.63;5184640;28;20053;-81
2023/05/03 11:00:15;;;;;;;0.73;0.73;;;;;;;12.96;44.73;102111.94;5180109;28;20056;-82
2023/05/03 11:03:33;;;;;;;0.50;0.50;;;;;;;13.06;46.49;102116.19;5193164;28;20143;-82
2023/05/03 11:06:34;;;;;;;1.20;1.08;;;;;;;13.29;47.63;102110.56;5180463;28;20116;-82
2023/05/03 11:09:33;;;;;;;1.00;0.70;;;;;;;13.32;46.53;102099.09;5196763;28;20133;-80
2023/05/03 11:12:24;;;;;;;0.40;0.40;;;;;;;13.27;46.23;102101.81;5185368;28;20121;-80
2023/05/03 11:15:15;;;;;;;0.68;0.68;;;;;;;13.45;45.03;102100.66;5186461;28;20041;-81
2023/05/03 11:18:07;;;;;;;0.52;0.52;;;;;;;13.40;45.92;102094.59;5183530;28;20562;-80
2023/05/03 11:20:58;;;;;;;1.33;1.23;;;;;;;13.51;43.71;102082.09;5197737;28;20038;-80
2023/05/03 11:23:48;;;;;;;0.60;0.60;;;;;;;13.59;46.00;102079.34;5199886;28;20033;-81
2023/05/03 11:26:39;;;;;;;0.68;0.63;;;;;;;13.65;45.27;102068.66;5185710;28;20489;-80
2023/05/03 11:29:31;;;;;;;0.40;0.40;;;;;;;13.76;46.02;102070.25;5190781;28;20064;-81
2023/05/03 11:32:25;;;;;;;0.75;0.75;;;;;;;14.06;47.15;102073.16;5182669;28;20044;-81
2023/05/03 11:35:16;;;;;;;0.60;0.60;;;;;;;14.00;45.18;102077.69;5193960;28;20041;-81
2023/05/03 11:38:08;;;;;;;0.82;0.82;;;;;;;14.17;45.67;102074.69;5184516;28;20412;-81
2023/05/03 11:41:10;;;;;;;0.40;0.40;;;;;;;14.13;43.31;102067.75;5181714;28;20037;-81
2023/05/03 11:44:02;;;;;;;0.45;0.45;;;;;;;14.22;44.31;102071.09;5181409;28;20049;-81
2023/05/03 11:46:53;;;;;;;0.47;0.47;;;;;;;14.27;42.21;102078.03;5185068;28;20034;-82
2023/05/03 11:49:55;;;;;;;1.40;1.30;;;;;;;14.16;43.48;102067.69;5184051;28;20037;-81
2023/05/03 11:52:45;;;;;;;0.55;0.55;;;;;;;14.38;45.10;102069.88;5184933;28;20040;-82
2023/05/03 11:55:47;;;;;;;0.63;0.63;;;;;;;14.51;44.28;102062.56;5180542;28;20037;-80
2023/05/03 11:58:59;;;;;;;0.43;0.43;;;;;;;14.69;43.92;102066.56;5194353;28;20794;-80
2023/05/03 12:01:52;;;;;;;0.63;0.63;;;;;;;14.73;42.50;102057.69;5182220;28;20380;-80
2023/05/03 12:04:43;;;;;;;0.40;0.40;;;;;;;14.77;42.52;102055.84;5184669;28;20080;-80
2023/05/03 12:07:35;;;;;;;0.88;0.88;;;;;;;14.92;42.79;102041.38;5194820;28;20406;-81
2023/05/03 12:10:31;;;;;;;0.73;0.73;;;;;;;14.83;41.72;102042.47;5195711;28;20087;-81
2023/05/03 12:13:36;;;;;;;2.80;2.10;;;;;;;15.29;42.75;102050.19;5183757;28;20030;-82
2023/05/03 12:16:27;;;;;;;0.50;0.50;;;;;;;15.18;43.19;102047.78;5182091;28;20080;-81
2023/05/03 12:19:29;;;;;;;0.75;0.75;;;;;;;15.16;40.94;102044.34;5182305;28;20041;-83
2023/05/03 12:22:20;;;;;;;0.60;0.60;;;;;;;15.29;42.53;102035.19;5179913;28;20129;-80
2023/05/03 12:25:11;;;;;;;2.10;1.65;;;;;;;15.82;40.91;102031.13;5184294;28;20361;-80
2023/05/03 12:28:03;;;;;;;1.20;1.00;;;;;;;15.60;39.92;102031.72;5195233;28;20046;-80
2023/05/03 12:30:54;;;;;;;0.40;0.40;;;;;;;15.57;42.15;102027.38;5181409;28;20033;-81
2023/05/03 12:33:45;;;;;;;1.05;1.05;;;;;;;15.60;39.93;102022.94;5190549;28;20045;-80
2023/05/03 12:36:36;;;;;;;1.45;0.75;;;;;;;16.06;40.93;102013.69;5184416;28;20049;-81
2023/05/03 12:39:27;;;;;;;0.50;0.40;;;;;;;15.96;40.93;102021.06;5198114;28;20034;-81
2023/05/03 12:42:17;;;;;;;0.45;0.45;;;;;;;15.91;38.60;102007.06;5192662;28;20043;-80
2023/05/03 12:45:10;;;;;;;1.30;1.05;;;;;;;15.95;39.50;102011.38;5182059;28;20042;-80
2023/05/03 12:48:01;;;;;;;0.30;0.30;;;;;;;15.86;39.68;102003.69;5192961;28;20257;-79
2023/05/03 12:50:53;;;;;;;1.55;1.20;;;;;;;16.43;38.63;101993.16;5184385;28;20103;-80
2023/05/03 12:53:48;;;;;;;0.38;0.38;;;;;;;16.46;39.95;101993.94;5198214;28;20759;-80
2023/05/03 12:56:41;;;;;;;0.50;0.50;;;;;;;16.35;40.36;101985.47;5194349;28;20084;-81
2023/05/03 12:59:32;;;;;;;0.52;0.52;;;;;;;16.45;39.62;101988.69;5184706;28;20034;-80
2023/05/03 13:02:23;;;;;;;0.73;0.73;;;;;;;16.40;39.88;101985.34;5187749;28;20088;-80
2023/05/03 13:05:13;;;;;;;0.30;0.30;;;;;;;16.52;39.82;101979.63;5184430;28;20097;-81
2023/05/03 13:08:05;;;;;;;0.50;0.50;;;;;;;16.91;38.71;101988.97;5201631;28;20105;-83